createdAt,value
2022-08-17T00:00:44.030Z,1011.46
2022-08-17T00:01:51.708Z,1011.45
2022-08-17T00:02:34.349Z,1011.44
2022-08-17T00:03:33.795Z,1011.44
2022-08-17T00:04:33.789Z,1011.44
2022-08-17T00:05:33.801Z,1011.42
2022-08-17T00:06:33.824Z,1011.40
2022-08-17T00:07:33.734Z,1011.43
2022-08-17T00:08:33.743Z,1011.45
2022-08-17T00:09:33.718Z,1011.38
2022-08-17T00:10:33.722Z,1011.40
2022-08-17T00:11:33.695Z,1011.41
2022-08-17T00:12:43.735Z,1011.40
2022-08-17T00:13:33.674Z,1011.46
2022-08-17T00:14:33.662Z,1011.41
2022-08-17T00:15:33.638Z,1011.44
2022-08-17T00:16:56.328Z,1011.42
2022-08-17T00:17:33.646Z,1011.46
2022-08-17T00:18:58.273Z,1011.45
2022-08-17T00:19:33.588Z,1011.44
2022-08-17T00:20:35.027Z,1011.46
2022-08-17T00:21:56.417Z,1011.44
2022-08-17T00:22:37.986Z,1011.49
2022-08-17T00:23:33.530Z,1011.46
2022-08-17T00:24:33.525Z,1011.46
2022-08-17T00:25:33.514Z,1011.44
2022-08-17T00:26:44.352Z,1011.43
2022-08-17T00:27:33.500Z,1011.38
2022-08-17T00:28:33.505Z,1011.37
2022-08-17T00:29:33.461Z,1011.37
2022-08-17T00:30:52.839Z,1011.40
2022-08-17T00:31:33.442Z,1011.36
2022-08-17T00:33:12.285Z,1011.38
2022-08-17T00:33:33.454Z,1011.35
2022-08-17T00:34:33.406Z,1011.38
2022-08-17T00:35:33.380Z,1011.37
2022-08-17T00:36:33.360Z,1011.37
2022-08-17T00:37:33.363Z,1011.36
2022-08-17T00:38:33.329Z,1011.36
2022-08-17T00:39:33.384Z,1011.37
2022-08-17T00:40:40.738Z,1011.33
2022-08-17T00:41:33.329Z,1011.36
2022-08-17T00:42:33.285Z,1011.38
2022-08-17T00:43:33.283Z,1011.36
2022-08-17T00:44:33.290Z,1011.37
2022-08-17T00:45:33.268Z,1011.35
2022-08-17T00:46:33.225Z,1011.38
2022-08-17T00:47:33.236Z,1011.35
2022-08-17T00:48:33.224Z,1011.35
2022-08-17T00:49:33.217Z,1011.32
2022-08-17T00:50:33.208Z,1011.34
2022-08-17T00:51:33.180Z,1011.36
2022-08-17T00:52:33.163Z,1011.33
2022-08-17T00:53:33.208Z,1011.34
2022-08-17T00:55:49.789Z,1011.35
2022-08-17T00:56:50.730Z,1011.40
2022-08-17T00:57:55.054Z,1011.34
2022-08-17T00:58:50.706Z,1011.39
2022-08-17T01:00:02.158Z,1011.38
2022-08-17T01:00:50.771Z,1011.37
2022-08-17T01:01:50.681Z,1011.33
2022-08-17T01:02:50.656Z,1011.35
2022-08-17T01:03:50.652Z,1011.32
2022-08-17T01:04:50.639Z,1011.35
2022-08-17T01:05:50.639Z,1011.35
2022-08-17T01:06:50.636Z,1011.32
2022-08-17T01:07:50.624Z,1011.34
2022-08-17T01:08:50.581Z,1011.36
2022-08-17T01:09:50.579Z,1011.33
2022-08-17T01:10:58.691Z,1011.34
2022-08-17T01:11:50.598Z,1011.30
2022-08-17T01:12:50.788Z,1011.27
2022-08-17T01:13:50.534Z,1011.28
2022-08-17T01:14:50.515Z,1011.27
2022-08-17T01:15:50.502Z,1011.22
2022-08-17T01:16:50.494Z,1011.21
2022-08-17T01:17:50.502Z,1011.24
2022-08-17T01:18:50.456Z,1011.22
2022-08-17T01:19:50.448Z,1011.23
2022-08-17T01:20:50.418Z,1011.28
2022-08-17T01:21:50.437Z,1011.24
2022-08-17T01:22:50.621Z,1011.29
2022-08-17T01:23:50.424Z,1011.34
2022-08-17T01:24:50.377Z,1011.31
2022-08-17T01:25:50.401Z,1011.33
2022-08-17T01:26:50.346Z,1011.33
2022-08-17T01:27:50.355Z,1011.36
2022-08-17T01:28:54.204Z,1011.33
2022-08-17T01:29:50.312Z,1011.37
2022-08-17T01:30:56.763Z,1011.34
2022-08-17T01:31:50.307Z,1011.36
2022-08-17T01:32:50.507Z,1011.37
2022-08-17T01:33:50.316Z,1011.36
2022-08-17T01:34:50.918Z,1011.41
2022-08-17T01:35:50.233Z,1011.43
2022-08-17T01:36:50.267Z,1011.33
2022-08-17T01:37:50.227Z,1011.34
2022-08-17T01:38:50.193Z,1011.34
2022-08-17T01:39:50.309Z,1011.34
2022-08-17T01:40:50.167Z,1011.34
2022-08-17T01:41:50.208Z,1011.33
2022-08-17T01:42:50.285Z,1011.35
2022-08-17T01:43:50.161Z,1011.36
2022-08-17T01:44:50.145Z,1011.36
2022-08-17T01:45:50.108Z,1011.34
2022-08-17T01:46:50.086Z,1011.36
2022-08-17T01:47:50.084Z,1011.37
2022-08-17T01:48:50.059Z,1011.35
2022-08-17T01:49:50.054Z,1011.36
2022-08-17T01:50:50.057Z,1011.36
2022-08-17T01:51:50.032Z,1011.44
2022-08-17T01:52:50.122Z,1011.37
2022-08-17T01:53:50.001Z,1011.40
2022-08-17T01:54:49.971Z,1011.40
2022-08-17T01:55:50.013Z,1011.40
2022-08-17T01:56:50.038Z,1011.41
2022-08-17T01:57:49.949Z,1011.41
2022-08-17T01:58:49.932Z,1011.40
2022-08-17T01:59:49.939Z,1011.39
2022-08-17T02:01:00.601Z,1011.39
2022-08-17T02:01:50.028Z,1011.39
2022-08-17T02:02:50.092Z,1011.41
2022-08-17T02:03:59.153Z,1011.46
2022-08-17T02:04:49.862Z,1011.41
2022-08-17T02:05:49.858Z,1011.45
2022-08-17T02:06:53.284Z,1011.41
2022-08-17T02:08:00.293Z,1011.42
2022-08-17T02:09:02.993Z,1011.47
2022-08-17T02:09:52.639Z,1011.44
2022-08-17T02:10:49.782Z,1011.50
2022-08-17T02:11:49.829Z,1011.52
2022-08-17T02:12:50.094Z,1011.58
2022-08-17T02:13:57.858Z,1011.55
2022-08-17T02:14:49.731Z,1011.60
2022-08-17T02:15:49.725Z,1011.66
2022-08-17T02:16:49.708Z,1011.88
2022-08-17T02:17:49.760Z,1012.10
2022-08-17T02:18:49.673Z,1012.10
2022-08-17T02:19:49.725Z,1012.09
2022-08-17T02:20:49.640Z,1011.95
2022-08-17T02:21:49.685Z,1012.05
2022-08-17T02:22:49.821Z,1012.04
2022-08-17T02:23:49.658Z,1012.04
2022-08-17T02:25:01.043Z,1012.07
2022-08-17T02:25:49.611Z,1012.10
2022-08-17T02:26:49.579Z,1012.09
2022-08-17T02:27:49.593Z,1012.05
2022-08-17T02:28:49.582Z,1012.07
2022-08-17T02:29:49.558Z,1012.13
2022-08-17T02:30:59.599Z,1012.12
2022-08-17T02:31:49.542Z,1012.15
2022-08-17T02:32:49.736Z,1012.17
2022-08-17T02:33:56.653Z,1012.18
2022-08-17T02:34:49.551Z,1012.15
2022-08-17T02:35:49.454Z,1012.11
2022-08-17T02:36:49.480Z,1012.18
2022-08-17T02:37:51.833Z,1012.16
2022-08-17T02:38:49.429Z,1012.18
2022-08-17T02:39:49.531Z,1012.22
2022-08-17T02:40:49.384Z,1012.20
2022-08-17T02:41:49.493Z,1012.17
2022-08-17T02:42:49.512Z,1012.18
2022-08-17T02:43:49.344Z,1012.18
2022-08-17T02:44:49.362Z,1012.19
2022-08-17T02:45:49.379Z,1012.21
2022-08-17T02:46:49.362Z,1012.16
2022-08-17T02:47:49.305Z,1012.19
2022-08-17T02:48:49.288Z,1012.12
2022-08-17T02:49:54.493Z,1012.10
2022-08-17T02:50:49.348Z,1012.15
2022-08-17T02:51:49.241Z,1012.12
2022-08-17T02:52:57.255Z,1012.08
2022-08-17T02:53:49.350Z,1012.11
2022-08-17T02:54:49.234Z,1012.06
2022-08-17T02:55:49.184Z,1012.08
2022-08-17T02:56:49.208Z,1012.07
2022-08-17T02:57:49.157Z,1012.07
2022-08-17T02:58:49.159Z,1012.07
2022-08-17T02:59:49.278Z,1012.02
2022-08-17T03:00:49.133Z,1012.06
2022-08-17T03:01:49.225Z,1012.03
2022-08-17T03:02:49.342Z,1012.08
2022-08-17T03:03:49.072Z,1012.01
2022-08-17T03:04:49.092Z,1012.07
2022-08-17T03:05:49.062Z,1012.02
2022-08-17T03:06:49.050Z,1012.05
2022-08-17T03:07:49.055Z,1012.02
2022-08-17T03:08:49.033Z,1012.03
2022-08-17T03:09:49.005Z,1012.02
2022-08-17T03:10:49.006Z,1011.97
2022-08-17T03:11:49.008Z,1011.96
2022-08-17T03:12:49.212Z,1011.98
2022-08-17T03:13:48.952Z,1011.94
2022-08-17T03:14:48.954Z,1011.93
2022-08-17T03:15:48.936Z,1011.96
2022-08-17T03:16:48.925Z,1011.86
2022-08-17T03:17:48.900Z,1011.86
2022-08-17T03:18:48.938Z,1011.83
2022-08-17T03:19:48.881Z,1011.79
2022-08-17T03:20:48.878Z,1011.76
2022-08-17T03:21:55.209Z,1011.68
2022-08-17T03:22:53.042Z,1011.66
2022-08-17T03:23:48.842Z,1011.61
2022-08-17T03:24:48.854Z,1011.56
2022-08-17T03:25:48.789Z,1011.49
2022-08-17T03:26:48.800Z,1011.51
2022-08-17T03:27:48.791Z,1011.47
2022-08-17T03:28:48.805Z,1011.42
2022-08-17T03:29:48.788Z,1011.39
2022-08-17T03:30:48.815Z,1011.36
2022-08-17T03:31:48.730Z,1011.29
2022-08-17T03:32:48.733Z,1011.22
2022-08-17T03:33:48.688Z,1011.16
2022-08-17T03:34:48.721Z,1011.10
2022-08-17T03:35:48.674Z,1011.07
2022-08-17T03:36:48.702Z,1011.01
2022-08-17T03:37:48.648Z,1010.95
2022-08-17T03:38:48.650Z,1010.97
2022-08-17T03:39:48.689Z,1011.03
2022-08-17T03:40:56.328Z,1011.05
2022-08-17T03:41:48.596Z,1011.12
2022-08-17T03:42:48.697Z,1011.12
2022-08-17T03:43:48.566Z,1011.10
2022-08-17T03:44:48.576Z,1011.10
2022-08-17T03:45:48.577Z,1011.12
2022-08-17T03:46:48.529Z,1011.15
2022-08-17T03:47:48.550Z,1011.18
2022-08-17T03:48:48.518Z,1011.18
2022-08-17T03:49:48.521Z,1011.19
2022-08-17T03:50:48.505Z,1011.11
2022-08-17T03:51:48.480Z,1011.10
2022-08-17T03:52:51.922Z,1011.11
2022-08-17T03:53:48.453Z,1011.14
2022-08-17T03:54:48.450Z,1011.16
2022-08-17T03:55:48.356Z,1011.21
2022-08-17T03:56:48.458Z,1011.25
2022-08-17T03:57:48.328Z,1011.33
2022-08-17T03:58:48.319Z,1011.35
2022-08-17T03:59:48.342Z,1011.36
2022-08-17T04:00:48.300Z,1011.36
2022-08-17T04:01:48.355Z,1011.34
2022-08-17T04:02:48.330Z,1011.31
2022-08-17T04:03:48.268Z,1011.27
2022-08-17T04:04:48.270Z,1011.29
2022-08-17T04:05:48.240Z,1011.28
2022-08-17T04:06:48.228Z,1011.26
2022-08-17T04:07:48.253Z,1011.28
2022-08-17T04:08:48.195Z,1011.28
2022-08-17T04:09:48.181Z,1011.34
2022-08-17T04:10:48.196Z,1011.36
2022-08-17T04:11:48.182Z,1011.40
2022-08-17T04:12:48.155Z,1011.46
2022-08-17T04:13:48.183Z,1011.44
2022-08-17T04:14:52.944Z,1011.41
2022-08-17T04:15:48.105Z,1011.42
2022-08-17T04:16:48.114Z,1011.41
2022-08-17T04:17:48.080Z,1011.53
2022-08-17T04:18:48.135Z,1011.61
2022-08-17T04:19:48.051Z,1011.60
2022-08-17T04:20:48.054Z,1011.54
2022-08-17T04:21:48.053Z,1011.50
2022-08-17T04:22:48.032Z,1011.57
2022-08-17T04:23:48.001Z,1011.66
2022-08-17T04:24:48.046Z,1011.59
2022-08-17T04:25:47.989Z,1011.54
2022-08-17T04:26:53.855Z,1011.45
2022-08-17T04:27:47.947Z,1011.45
2022-08-17T04:28:47.939Z,1011.41
2022-08-17T04:29:50.885Z,1011.42
2022-08-17T04:30:47.911Z,1011.41
2022-08-17T04:31:47.880Z,1011.44
2022-08-17T04:33:09.876Z,1011.42
2022-08-17T04:33:47.897Z,1011.42
2022-08-17T04:34:47.869Z,1011.41
2022-08-17T04:35:47.880Z,1011.39
2022-08-17T04:36:50.119Z,1011.35
2022-08-17T04:37:47.829Z,1011.28
2022-08-17T04:38:47.816Z,1011.24
2022-08-17T04:39:47.850Z,1011.25
2022-08-17T04:40:47.809Z,1011.21
2022-08-17T04:41:47.756Z,1011.18
2022-08-17T04:42:47.761Z,1011.20
2022-08-17T04:43:47.757Z,1011.13
2022-08-17T04:44:47.721Z,1011.16
2022-08-17T04:45:55.004Z,1011.18
2022-08-17T04:46:47.755Z,1011.14
2022-08-17T04:47:47.666Z,1011.16
2022-08-17T04:48:47.679Z,1011.16
2022-08-17T04:49:47.697Z,1011.14
2022-08-17T04:50:47.648Z,1011.14
2022-08-17T04:51:56.832Z,1011.15
2022-08-17T04:52:47.632Z,1011.13
2022-08-17T04:53:51.087Z,1011.15
2022-08-17T04:54:47.637Z,1011.13
2022-08-17T04:55:47.580Z,1011.09
2022-08-17T04:56:47.597Z,1011.12
2022-08-17T04:57:47.586Z,1011.12
2022-08-17T04:58:47.564Z,1011.13
2022-08-17T04:59:47.554Z,1011.15
2022-08-17T05:00:47.611Z,1011.12
2022-08-17T05:01:47.523Z,1011.11
2022-08-17T05:02:47.575Z,1011.15
2022-08-17T05:03:47.503Z,1011.16
2022-08-17T05:04:47.502Z,1011.20
2022-08-17T05:05:47.446Z,1011.17
2022-08-17T05:06:47.443Z,1011.11
2022-08-17T05:07:47.418Z,1011.06
2022-08-17T05:08:47.440Z,1011.05
2022-08-17T05:09:47.387Z,1011.03
2022-08-17T05:10:47.386Z,1011.04
2022-08-17T05:11:47.363Z,1010.99
2022-08-17T05:12:47.433Z,1010.96
2022-08-17T05:13:47.382Z,1010.94
2022-08-17T05:14:47.344Z,1010.91
2022-08-17T05:15:48.161Z,1011.01
2022-08-17T05:16:47.337Z,1010.97
2022-08-17T05:17:47.292Z,1010.99
2022-08-17T05:18:47.290Z,1011.08
2022-08-17T05:19:51.752Z,1011.08
2022-08-17T05:20:47.257Z,1011.10
2022-08-17T05:21:47.247Z,1011.14
2022-08-17T05:22:47.229Z,1011.18
2022-08-17T05:23:54.972Z,1011.14
2022-08-17T05:24:53.537Z,1011.13
2022-08-17T05:25:47.676Z,1011.12
2022-08-17T05:26:47.209Z,1011.16
2022-08-17T05:27:47.182Z,1011.13
2022-08-17T05:28:47.187Z,1011.13
2022-08-17T05:29:47.132Z,1011.22
2022-08-17T05:30:49.220Z,1011.18
2022-08-17T05:31:47.118Z,1011.20
2022-08-17T05:32:47.105Z,1011.23
2022-08-17T05:33:47.075Z,1011.20
2022-08-17T05:34:47.074Z,1011.23
2022-08-17T05:35:47.081Z,1011.22
2022-08-17T05:36:47.108Z,1011.21
2022-08-17T05:37:47.018Z,1011.20
2022-08-17T05:38:47.021Z,1011.21
2022-08-17T05:39:47.040Z,1011.25
2022-08-17T05:40:47.012Z,1011.30
2022-08-17T05:41:47.008Z,1011.34
2022-08-17T05:42:47.017Z,1011.37
2022-08-17T05:43:46.956Z,1011.45
2022-08-17T05:44:46.965Z,1011.51
2022-08-17T05:45:55.271Z,1011.54
2022-08-17T05:46:46.966Z,1011.52
2022-08-17T05:47:46.928Z,1011.54
2022-08-17T05:48:46.892Z,1011.51
2022-08-17T05:49:49.035Z,1011.56
2022-08-17T05:50:46.873Z,1011.48
2022-08-17T05:51:46.860Z,1011.45
2022-08-17T05:52:46.916Z,1011.53
2022-08-17T05:53:46.850Z,1011.55
2022-08-17T05:54:46.819Z,1011.59
2022-08-17T05:55:46.790Z,1011.56
2022-08-17T05:56:46.800Z,1011.58
2022-08-17T05:57:51.165Z,1011.60
2022-08-17T05:58:46.768Z,1011.61
2022-08-17T05:59:46.771Z,1011.59
2022-08-17T06:00:46.803Z,1011.64
2022-08-17T06:01:46.730Z,1011.64
2022-08-17T06:02:47.991Z,1011.68
2022-08-17T06:03:46.733Z,1011.60
2022-08-17T06:04:46.712Z,1011.60
2022-08-17T06:05:46.717Z,1011.55
2022-08-17T06:06:46.672Z,1011.63
2022-08-17T06:07:46.635Z,1011.56
2022-08-17T06:08:46.643Z,1011.59
2022-08-17T06:09:46.611Z,1011.57
2022-08-17T06:10:46.704Z,1011.57
2022-08-17T06:11:46.581Z,1011.56
2022-08-17T06:12:46.647Z,1011.51
2022-08-17T06:13:46.574Z,1011.62
2022-08-17T06:14:46.548Z,1011.55
2022-08-17T06:15:46.546Z,1011.53
2022-08-17T06:16:46.547Z,1011.53
2022-08-17T06:17:46.532Z,1011.45
2022-08-17T06:18:46.599Z,1011.43
2022-08-17T06:19:46.474Z,1011.47
2022-08-17T06:20:46.488Z,1011.43
2022-08-17T06:21:46.483Z,1011.48
2022-08-17T06:22:46.568Z,1011.45
2022-08-17T06:23:46.412Z,1011.43
2022-08-17T06:24:46.434Z,1011.40
2022-08-17T06:25:46.413Z,1011.45
2022-08-17T06:26:46.404Z,1011.42
2022-08-17T06:27:46.397Z,1011.37
2022-08-17T06:28:46.389Z,1011.34
2022-08-17T06:29:46.342Z,1011.34
2022-08-17T06:30:59.174Z,1011.37
2022-08-17T06:31:46.385Z,1011.36
2022-08-17T06:32:46.470Z,1011.38
2022-08-17T06:33:46.291Z,1011.41
2022-08-17T06:34:46.298Z,1011.42
2022-08-17T06:35:46.295Z,1011.42
2022-08-17T06:36:46.306Z,1011.41
2022-08-17T06:37:46.423Z,1011.38
2022-08-17T06:38:46.236Z,1011.36
2022-08-17T06:39:46.326Z,1011.36
2022-08-17T06:40:46.209Z,1011.37
2022-08-17T06:41:46.195Z,1011.39
2022-08-17T06:43:05.151Z,1011.41
2022-08-17T06:43:47.998Z,1011.41
2022-08-17T06:44:51.186Z,1011.47
2022-08-17T06:45:46.145Z,1011.43
2022-08-17T06:46:46.157Z,1011.47
2022-08-17T06:47:46.129Z,1011.50
2022-08-17T06:48:46.125Z,1011.56
2022-08-17T06:49:46.191Z,1011.58
2022-08-17T06:50:46.070Z,1011.57
2022-08-17T06:51:46.117Z,1011.58
2022-08-17T06:52:47.511Z,1011.56
2022-08-17T06:53:46.118Z,1011.60
2022-08-17T06:54:46.107Z,1011.58
2022-08-17T06:55:46.037Z,1011.57
2022-08-17T06:56:53.119Z,1011.60
2022-08-17T06:57:45.995Z,1011.58
2022-08-17T06:58:46.051Z,1011.54
2022-08-17T06:59:54.592Z,1011.52
2022-08-17T07:00:46.081Z,1011.49
2022-08-17T07:01:45.953Z,1011.46
2022-08-17T07:02:51.960Z,1011.45
2022-08-17T07:03:45.933Z,1011.44
2022-08-17T07:04:45.911Z,1011.50
2022-08-17T07:05:45.936Z,1011.51
2022-08-17T07:06:45.863Z,1011.54
2022-08-17T07:07:45.878Z,1011.57
2022-08-17T07:08:45.920Z,1011.56
2022-08-17T07:09:45.833Z,1011.58
2022-08-17T07:10:45.838Z,1011.61
2022-08-17T07:11:45.838Z,1011.58
2022-08-17T07:12:45.890Z,1011.53
2022-08-17T07:13:51.220Z,1011.56
2022-08-17T07:14:45.801Z,1011.58
2022-08-17T07:15:45.761Z,1011.52
2022-08-17T07:16:45.768Z,1011.56
2022-08-17T07:17:47.184Z,1011.59
2022-08-17T07:18:45.712Z,1011.60
2022-08-17T07:19:45.738Z,1011.59
2022-08-17T07:20:45.687Z,1011.58
2022-08-17T07:21:45.722Z,1011.60
2022-08-17T07:22:50.389Z,1011.59
2022-08-17T07:23:45.693Z,1011.65
2022-08-17T07:24:45.621Z,1011.62
2022-08-17T07:25:45.646Z,1011.62
2022-08-17T07:26:45.643Z,1011.66
2022-08-17T07:27:45.648Z,1011.67
2022-08-17T07:28:45.580Z,1011.68
2022-08-17T07:29:45.609Z,1011.72
2022-08-17T07:30:47.360Z,1011.78
2022-08-17T07:31:45.553Z,1011.79
2022-08-17T07:32:45.562Z,1011.76
2022-08-17T07:33:45.536Z,1011.71
2022-08-17T07:34:45.515Z,1011.75
2022-08-17T07:35:45.498Z,1011.75
2022-08-17T07:36:45.477Z,1011.73
2022-08-17T07:37:45.618Z,1011.72
2022-08-17T07:38:45.473Z,1011.71
2022-08-17T07:40:13.164Z,1011.70
2022-08-17T07:40:45.477Z,1011.71
2022-08-17T07:41:57.851Z,1011.69
2022-08-17T07:42:46.736Z,1011.71
2022-08-17T07:43:45.458Z,1011.68
2022-08-17T07:44:45.373Z,1011.66
2022-08-17T07:45:45.423Z,1011.62
2022-08-17T07:46:45.349Z,1011.65
2022-08-17T07:47:45.339Z,1011.73
2022-08-17T07:48:45.368Z,1011.76
2022-08-17T07:49:45.318Z,1011.77
2022-08-17T07:50:49.386Z,1011.78
2022-08-17T07:51:45.299Z,1011.80
2022-08-17T07:52:51.881Z,1011.79
2022-08-17T07:53:45.265Z,1011.84
2022-08-17T07:54:45.291Z,1011.84
2022-08-17T07:55:45.273Z,1011.85
2022-08-17T07:56:45.216Z,1011.90
2022-08-17T07:57:45.220Z,1011.88
2022-08-17T07:58:45.213Z,1011.86
2022-08-17T07:59:45.231Z,1011.88
2022-08-17T08:00:45.229Z,1011.92
2022-08-17T08:01:45.205Z,1011.88
2022-08-17T08:02:45.147Z,1011.94
2022-08-17T08:03:45.147Z,1011.93
2022-08-17T08:05:01.618Z,1011.96
2022-08-17T08:05:50.219Z,1012.02
2022-08-17T08:06:45.126Z,1012.02
2022-08-17T08:07:45.124Z,1012.03
2022-08-17T08:08:45.057Z,1012.06
2022-08-17T08:09:45.065Z,1012.08
2022-08-17T08:10:45.487Z,1012.09
2022-08-17T08:11:45.081Z,1012.07
2022-08-17T08:12:45.009Z,1012.09
2022-08-17T08:13:45.035Z,1012.09
2022-08-17T08:14:45.058Z,1012.07
2022-08-17T08:15:53.741Z,1012.11
2022-08-17T08:16:45.005Z,1012.14
2022-08-17T08:17:44.994Z,1012.17
2022-08-17T08:18:55.676Z,1012.25
2022-08-17T08:19:44.959Z,1012.23
2022-08-17T08:20:52.763Z,1012.27
2022-08-17T08:21:44.939Z,1012.33
2022-08-17T08:22:44.877Z,1012.35
2022-08-17T08:23:44.894Z,1012.42
2022-08-17T08:24:44.853Z,1012.46
2022-08-17T08:25:44.858Z,1012.46
2022-08-17T08:26:44.852Z,1012.48
2022-08-17T08:27:44.858Z,1012.47
2022-08-17T08:28:44.797Z,1012.43
2022-08-17T08:29:44.805Z,1012.44
2022-08-17T08:30:44.777Z,1012.49
2022-08-17T08:31:44.777Z,1012.43
2022-08-17T08:32:44.823Z,1012.44
2022-08-17T08:33:44.802Z,1012.47
2022-08-17T08:35:00.922Z,1012.48
2022-08-17T08:35:44.771Z,1012.48
2022-08-17T08:36:57.018Z,1012.52
2022-08-17T08:37:44.739Z,1012.54
2022-08-17T08:38:44.715Z,1012.60
2022-08-17T08:39:44.733Z,1012.64
2022-08-17T08:40:44.659Z,1012.67
2022-08-17T08:41:44.648Z,1012.66
2022-08-17T08:42:44.628Z,1012.68
2022-08-17T08:43:47.386Z,1012.65
2022-08-17T08:45:00.534Z,1012.68
2022-08-17T08:45:44.618Z,1012.69
2022-08-17T08:46:44.580Z,1012.73
2022-08-17T08:47:44.569Z,1012.72
2022-08-17T08:48:56.533Z,1012.71
2022-08-17T08:50:03.538Z,1012.74
2022-08-17T08:50:44.529Z,1012.72
2022-08-17T08:51:44.521Z,1012.71
2022-08-17T08:52:44.516Z,1012.73
2022-08-17T08:53:44.500Z,1012.72
2022-08-17T08:54:44.506Z,1012.70
2022-08-17T08:55:44.498Z,1012.71
2022-08-17T08:57:19.498Z,1012.76
2022-08-17T08:57:44.458Z,1012.64
2022-08-17T08:58:44.446Z,1012.69
2022-08-17T08:59:44.769Z,1012.76
2022-08-17T09:00:44.434Z,1012.75
2022-08-17T09:02:55.422Z,1012.81
2022-08-17T09:04:11.813Z,1012.78
2022-08-17T09:05:14.018Z,1012.77
2022-08-17T09:05:56.359Z,1012.72
2022-08-17T09:06:56.356Z,1012.66
2022-08-17T09:07:57.561Z,1012.63
2022-08-17T09:08:56.354Z,1012.64
2022-08-17T09:09:59.290Z,1012.64
2022-08-17T09:10:56.374Z,1012.61
2022-08-17T09:12:02.741Z,1012.60
2022-08-17T09:12:56.328Z,1012.64
2022-08-17T09:13:56.264Z,1012.63
2022-08-17T09:14:56.314Z,1012.62
2022-08-17T09:15:56.230Z,1012.60
2022-08-17T09:16:56.306Z,1012.66
2022-08-17T09:18:28.410Z,1012.63
2022-08-17T09:19:04.906Z,1012.58
2022-08-17T09:19:56.172Z,1012.61
2022-08-17T09:20:56.231Z,1012.71
2022-08-17T09:21:56.156Z,1012.70
2022-08-17T09:22:56.187Z,1012.76
2022-08-17T09:23:56.136Z,1012.77
2022-08-17T09:24:56.138Z,1012.78
2022-08-17T09:25:56.101Z,1012.78
2022-08-17T09:26:56.102Z,1012.78
2022-08-17T09:27:56.076Z,1012.72
2022-08-17T09:28:56.108Z,1012.72
2022-08-17T09:29:56.043Z,1012.71
2022-08-17T09:30:56.053Z,1012.75
2022-08-17T09:31:56.025Z,1012.75
2022-08-17T09:32:56.021Z,1012.75
2022-08-17T09:33:56.007Z,1012.74
2022-08-17T09:34:56.054Z,1012.73
2022-08-17T09:35:55.971Z,1012.69
2022-08-17T09:36:55.977Z,1012.77
2022-08-17T09:37:55.943Z,1012.73
2022-08-17T09:38:55.948Z,1012.61
2022-08-17T09:39:55.982Z,1012.60
2022-08-17T09:40:55.960Z,1012.53
2022-08-17T09:41:55.943Z,1012.49
2022-08-17T09:42:55.926Z,1012.55
2022-08-17T09:43:55.901Z,1012.48
2022-08-17T09:44:55.912Z,1012.41
2022-08-17T09:45:55.860Z,1012.36
2022-08-17T09:46:55.884Z,1012.41
2022-08-17T09:47:55.826Z,1012.38
2022-08-17T09:48:55.827Z,1012.30
2022-08-17T09:49:55.801Z,1012.29
2022-08-17T09:51:04.792Z,1012.26
2022-08-17T09:51:55.772Z,1012.24
2022-08-17T09:52:55.884Z,1012.19
2022-08-17T09:54:01.818Z,1012.21
2022-08-17T09:54:55.742Z,1012.25
2022-08-17T09:55:55.725Z,1012.36
2022-08-17T09:57:18.125Z,1012.41
2022-08-17T09:57:55.695Z,1012.44
2022-08-17T09:58:55.721Z,1012.41
2022-08-17T09:59:55.687Z,1012.42
2022-08-17T10:00:55.729Z,1012.42
2022-08-17T10:01:55.655Z,1012.51
2022-08-17T10:02:55.659Z,1012.52
2022-08-17T10:03:55.607Z,1012.60
2022-08-17T10:04:55.747Z,1012.58
2022-08-17T10:05:56.802Z,1012.54
2022-08-17T10:06:55.605Z,1012.54
2022-08-17T10:07:55.582Z,1012.56
2022-08-17T10:08:55.596Z,1012.64
2022-08-17T10:09:55.561Z,1012.63
2022-08-17T10:10:56.661Z,1012.62
2022-08-17T10:11:55.573Z,1012.70
2022-08-17T10:12:55.507Z,1012.74
2022-08-17T10:13:55.478Z,1012.70
2022-08-17T10:14:55.514Z,1012.82
2022-08-17T10:15:55.502Z,1012.84
2022-08-17T10:16:55.489Z,1012.85
2022-08-17T10:17:55.472Z,1012.74
2022-08-17T10:18:55.450Z,1012.81
2022-08-17T10:19:55.441Z,1013.01
2022-08-17T10:20:55.436Z,1012.90
2022-08-17T10:22:01.065Z,1012.92
2022-08-17T10:22:55.439Z,1012.94
2022-08-17T10:23:55.370Z,1012.97
2022-08-17T10:25:21.539Z,1012.95
2022-08-17T10:25:56.006Z,1012.93
2022-08-17T10:26:56.881Z,1013.04
2022-08-17T10:27:55.346Z,1012.96
2022-08-17T10:28:55.385Z,1012.99
2022-08-17T10:29:55.350Z,1013.01
2022-08-17T10:31:10.418Z,1012.95
2022-08-17T10:31:55.267Z,1012.91
2022-08-17T10:32:55.272Z,1012.99
2022-08-17T10:33:55.243Z,1012.97
2022-08-17T10:34:55.270Z,1012.98
2022-08-17T10:35:57.251Z,1012.95
2022-08-17T10:36:55.209Z,1012.96
2022-08-17T10:37:55.183Z,1012.95
2022-08-17T10:38:55.211Z,1012.92
2022-08-17T10:39:55.212Z,1012.90
2022-08-17T10:40:55.243Z,1012.90
2022-08-17T10:41:55.124Z,1012.80
2022-08-17T10:42:55.143Z,1012.86
2022-08-17T10:44:37.311Z,1012.89
2022-08-17T10:44:55.202Z,1012.94
2022-08-17T10:46:10.487Z,1012.88
2022-08-17T10:46:55.110Z,1012.89
2022-08-17T10:47:56.676Z,1012.88
2022-08-17T10:48:55.050Z,1012.86
2022-08-17T10:49:55.048Z,1012.87
2022-08-17T10:50:55.097Z,1012.79
2022-08-17T10:51:55.014Z,1012.85
2022-08-17T10:52:55.035Z,1012.87
2022-08-17T10:53:54.993Z,1012.86
2022-08-17T10:54:58.580Z,1012.86
2022-08-17T10:55:54.975Z,1012.90
2022-08-17T10:56:54.939Z,1012.88
2022-08-17T10:57:54.944Z,1012.95
2022-08-17T10:58:54.967Z,1012.93
2022-08-17T10:59:54.909Z,1012.98
2022-08-17T11:00:54.952Z,1013.05
2022-08-17T11:01:54.978Z,1013.04
2022-08-17T11:02:54.951Z,1013.06
2022-08-17T11:03:54.959Z,1013.00
2022-08-17T11:04:54.877Z,1013.00
2022-08-17T11:05:54.878Z,1013.02
2022-08-17T11:06:54.812Z,1013.06
2022-08-17T11:07:54.812Z,1012.99
2022-08-17T11:08:54.815Z,1013.02
2022-08-17T11:09:54.822Z,1013.02
2022-08-17T11:10:54.809Z,1012.97
2022-08-17T11:11:54.811Z,1013.00
2022-08-17T11:12:54.751Z,1012.97
2022-08-17T11:13:54.751Z,1013.03
2022-08-17T11:14:54.749Z,1013.04
2022-08-17T11:15:58.730Z,1013.02
2022-08-17T11:16:54.737Z,1013.07
2022-08-17T11:17:54.699Z,1013.04
2022-08-17T11:18:54.661Z,1012.96
2022-08-17T11:19:54.689Z,1013.00
2022-08-17T11:20:54.641Z,1012.99
2022-08-17T11:21:54.645Z,1013.08
2022-08-17T11:22:54.705Z,1013.00
2022-08-17T11:23:54.611Z,1012.94
2022-08-17T11:24:54.609Z,1012.95
2022-08-17T11:25:54.594Z,1012.93
2022-08-17T11:26:54.566Z,1012.91
2022-08-17T11:27:54.566Z,1012.89
2022-08-17T11:28:54.612Z,1012.82
2022-08-17T11:30:00.921Z,1012.84
2022-08-17T11:30:54.525Z,1012.89
2022-08-17T11:31:54.524Z,1012.85
2022-08-17T11:32:55.363Z,1012.85
2022-08-17T11:33:54.490Z,1012.87
2022-08-17T11:34:54.501Z,1012.87
2022-08-17T11:35:54.499Z,1012.85
2022-08-17T11:36:54.441Z,1012.80
2022-08-17T11:37:54.522Z,1012.81
2022-08-17T11:38:54.421Z,1012.75
2022-08-17T11:39:54.519Z,1012.77
2022-08-17T11:40:54.440Z,1012.75
2022-08-17T11:41:54.416Z,1012.80
2022-08-17T11:42:54.368Z,1012.85
2022-08-17T11:43:54.398Z,1012.88
2022-08-17T11:44:54.363Z,1012.80
2022-08-17T11:45:54.336Z,1012.78
2022-08-17T11:46:54.527Z,1012.78
2022-08-17T11:48:23.916Z,1012.75
2022-08-17T11:48:54.296Z,1012.79
2022-08-17T11:49:54.298Z,1012.86
2022-08-17T11:50:54.288Z,1012.81
2022-08-17T11:51:54.263Z,1012.81
2022-08-17T11:52:54.265Z,1012.79
2022-08-17T11:54:08.747Z,1012.80
2022-08-17T11:55:03.569Z,1012.74
2022-08-17T11:55:54.244Z,1012.73
2022-08-17T11:56:54.210Z,1012.82
2022-08-17T11:57:54.279Z,1012.73
2022-08-17T11:58:54.217Z,1012.79
2022-08-17T11:59:54.174Z,1012.80
2022-08-17T12:00:54.149Z,1012.77
2022-08-17T12:01:54.144Z,1012.81
2022-08-17T12:02:54.150Z,1012.88
2022-08-17T12:03:55.910Z,1012.81
2022-08-17T12:04:54.175Z,1012.88
2022-08-17T12:05:54.096Z,1012.89
2022-08-17T12:06:54.065Z,1012.87
2022-08-17T12:07:54.086Z,1012.79